Flight Track Log - Related Links

Times and Time Zones

All times are in EDT time to prevent confusion due to time zone crossing. See the AAL832 flight status page for this flight to view local times or setup timezone preferences in your user account.

Time Position Orientation Groundspeed Altitude Reporting Facility
EDT Latitude Longitude Course Direction KTS MPH feet Rate Location/Type
Tue 01:25:45 PM 33.9347 -118.4417 59° Northeast 186 214 1,900  Level Los Angeles Center
Tue 01:26:47 PM 33.9167 -118.5206 255° West 249 287 4,200 2,516 Climbing Los Angeles Center
Tue 01:27:00 PM 34.0538 -118.1962 40° Northeast  Level FlightAware Approximate
Tue 01:27:49 PM 33.8753 -118.5839 232° Southwest 254 292 7,100  Level Los Angeles Center
Tue 01:28:00 PM 34.1291 -118.0751 59° Northeast  Level FlightAware Approximate
Tue 01:28:51 PM 33.8197 -118.5375 145° Southeast 288 331 9,300  Level Los Angeles Center
Tue 01:29:00 PM 34.1944 -117.9447 59° Northeast  Level FlightAware Approximate
Tue 01:29:53 PM 33.8733 -118.4558 52° Northeast 321 369 11,300  Level Los Angeles Center
Tue 01:30:00 PM 34.2596 -117.8142 59° Northeast  Level FlightAware Approximate
Tue 01:30:56 PM 33.9492 -118.4086 27° Northeast 347 399 13,500  Level Los Angeles Center
Tue 01:31:00 PM 34.3422 -117.6990 59° Northeast  Level FlightAware Approximate
Tue 01:31:58 PM 34.0183 -118.2842 56° Northeast 369 425 16,000  Level Los Angeles Center
Tue 01:33:00 PM 34.0794 -118.1753 56° Northeast 385 443 18,200 2,081 Climbing Los Angeles Center
Tue 01:34:02 PM 34.1425 -118.0647 55° Northeast 394 453 20,300 1,839 Climbing Los Angeles Center
Tue 01:35:04 PM 34.2064 -117.9517 56° Northeast 402 463 22,000 1,597 Climbing Los Angeles Center
Tue 01:36:06 PM 34.2728 -117.8325 56° Northeast 420 483 23,600 1,500 Climbing Los Angeles Center
Tue 01:37:08 PM 34.3403 -117.7111 56° Northeast 431 496 25,100 1,548 Climbing Los Angeles Center
Tue 01:38:10 PM 34.4125 -117.5797 56° Northeast 440 506 26,800 1,392 Climbing Los Angeles Center
Tue 01:39:13 PM 34.4825 -117.4536 56° Northeast 449 517 28,000 1,296 Climbing Los Angeles Center
Tue 01:40:15 PM 34.5686 -117.2972 56° Northeast 465 535 29,500 1,306 Climbing Los Angeles Center
Tue 01:41:17 PM 34.6419 -117.1642 56° Northeast 475 547 30,700 1,210 Climbing Los Angeles Center
Tue 01:42:19 PM 34.7306 -117.0431 48° Northeast 484 557 32,000 1,258 Climbing Los Angeles Center
Tue 01:43:21 PM 34.8169 -116.9231 49° Northeast 478 550 33,300 1,258 Climbing Los Angeles Center
Tue 01:44:23 PM 34.9039 -116.8036 48° Northeast 476 548 34,600 1,210 Climbing Los Angeles Center
Tue 01:45:25 PM 34.9889 -116.6847 49° Northeast 471 542 35,800 1,113 Climbing Los Angeles Center
Tue 01:46:27 PM 35.0936 -116.5431 48° Northeast 470 541 36,900 576 Climbing Los Angeles Center
Tue 01:47:30 PM 35.1797 -116.4269 48° Northeast 467 537 37,000 48 Climbing Los Angeles Center
Tue 01:48:32 PM 35.2636 -116.3117 48° Northeast 458 527 37,000  Level Los Angeles Center
Tue 01:49:34 PM 35.3467 -116.1933 49° Northeast 460 529 37,000  Level Los Angeles Center
Tue 01:50:36 PM 35.4481 -116.0514 49° Northeast 463 533 37,000  Level Los Angeles Center
Tue 01:51:38 PM 35.5344 -115.9328 48° Northeast 465 535 37,000  Level Los Angeles Center
Tue 01:52:40 PM 35.6228 -115.8075 49° Northeast 467 537 37,000  Level Los Angeles Center
Tue 01:53:42 PM 35.7086 -115.6869 49° Northeast 468 539 37,000  Level Los Angeles Center
Tue 01:54:44 PM 35.7931 -115.5675 49° Northeast 467 537 37,000  Level Los Angeles Center
Tue 01:55:47 PM 35.8764 -115.4486 49° Northeast 463 533 37,000  Level Los Angeles Center
Tue 01:56:49 PM 35.9769 -115.3056 49° Northeast 463 533 37,000  Level Los Angeles Center
Tue 01:57:51 PM 36.0578 -115.1878 50° Northeast 455 524 37,000  Level Los Angeles Center
Tue 01:58:53 PM 36.1153 -115.0425 64° Northeast 476 548 37,000  Level Los Angeles Center
Tue 01:59:55 PM 36.1608 -114.8914 69° East 473 544 37,000  Level Los Angeles Center
Tue 02:00:57 PM 36.2064 -114.7397 70° East 473 544 37,000  Level Los Angeles Center
Tue 02:01:59 PM 36.2617 -114.5567 69° East 475 547 37,000  Level Los Angeles Center
Tue 02:03:01 PM 36.3069 -114.4042 70° East 474 545 37,000  Level Los Angeles Center
Tue 02:04:03 PM 36.3528 -114.2511 70° East 474 545 37,000  Level Los Angeles Center
Tue 02:05:06 PM 36.3994 -114.0983 69° East 475 547 37,000  Level Los Angeles Center
Tue 02:06:08 PM 36.4436 -113.9461 70° East 471 542 37,000  Level Los Angeles Center
Tue 02:07:10 PM 36.4894 -113.7919 70° East 475 547 37,000  Level Los Angeles Center
Tue 02:08:11 PM 36.5308 -113.6525 70° East 476 548 37,000  Level Los Angeles Center
Tue 02:09:14 PM 36.5844 -113.4669 70° East 477 549 37,000  Level Los Angeles Center
Tue 02:10:16 PM 36.6294 -113.3133 70° East 476 548 37,000  Level Los Angeles Center
Tue 02:11:18 PM 36.6825 -113.1283 70° East 476 548 37,000  Level Los Angeles Center
Tue 02:12:20 PM 36.7264 -112.9742 70° East 476 548 37,000  Level Los Angeles Center
Tue 02:13:23 PM 36.7711 -112.8217 70° East 473 544 37,000  Level Los Angeles Center
Tue 02:14:25 PM 36.8139 -112.6675 71° East 473 544 37,000  Level Los Angeles Center
Tue 02:15:27 PM 36.8556 -112.5153 71° East 469 540 37,000  Level Los Angeles Center
Tue 02:16:29 PM 36.9081 -112.3308 70° East 472 543 37,000  Level Los Angeles Center
Tue 02:17:31 PM 36.9511 -112.1758 71° East 474 545 37,000  Level Los Angeles Center
Tue 02:18:33 PM 36.9944 -112.0208 71° East 475 547 37,000  Level Los Angeles Center
Tue 02:19:35 PM 37.0358 -111.8642 72° East 476 548 37,000  Level Los Angeles Center
Tue 02:20:37 PM 37.0761 -111.7069 72° East 476 548 37,000  Level Los Angeles Center
Tue 02:21:20 PM 37.1103 -111.5792 71° East 478 550 37,000  Level Denver Center
Tue 02:22:22 PM 37.1475 -111.4247 73° East 472 543 37,000  Level Denver Center
Tue 02:23:24 PM 37.1867 -111.2675 73° East 473 544 37,000  Level Denver Center
Tue 02:24:26 PM 37.2350 -111.0772 72° East 478 550 37,000  Level Denver Center
Tue 02:25:28 PM 37.2747 -110.9178 73° East 480 552 37,000  Level Denver Center
Tue 02:26:29 PM 37.3147 -110.7600 72° East 477 549 37,000  Level Denver Center
Tue 02:27:31 PM 37.3539 -110.6008 73° East 478 550 37,000  Level Denver Center
Tue 02:28:33 PM 37.3914 -110.4417 73° East 479 551 37,000  Level Denver Center
Tue 02:29:35 PM 37.4306 -110.2831 73° East 477 549 37,000  Level Denver Center
Tue 02:30:37 PM 37.4725 -110.1119 73° East 481 554 37,000  Level Denver Center
Tue 02:31:39 PM 37.5158 -109.9303 73° East 480 552 37,000  Level Denver Center
Tue 02:32:40 PM 37.5578 -109.7825 70° East 478 550 37,000  Level Denver Center
Tue 02:33:42 PM 37.6053 -109.6053 71° East 478 550 37,000  Level Denver Center
Tue 02:34:44 PM 37.6453 -109.4514 72° East 481 554 37,000  Level Denver Center
Tue 02:35:46 PM 37.6919 -109.2758 71° East 476 548 37,000  Level Denver Center
Tue 02:36:48 PM 37.7325 -109.1233 71° East 478 550 37,000  Level Denver Center
Tue 02:37:49 PM 37.7725 -108.9714 72° East 477 549 37,000  Level Denver Center
Tue 02:38:51 PM 37.8178 -108.7956 72° East 474 545 37,000  Level Denver Center
Tue 02:39:53 PM 37.8564 -108.6447 72° East 471 542 37,000  Level Denver Center
Tue 02:40:55 PM 37.9017 -108.4667 72° East 476 548 37,000  Level Denver Center
Tue 02:41:57 PM 37.9411 -108.3142 72° East 476 548 37,000  Level Denver Center
Tue 02:42:58 PM 37.9853 -108.1358 73° East 477 549 37,000  Level Denver Center
Tue 02:44:00 PM 38.0258 -107.9794 72° East 480 552 37,000  Level Denver Center
Tue 02:45:02 PM 38.0697 -107.7994 73° East 479 551 37,000  Level Denver Center
Tue 02:46:04 PM 38.1072 -107.6453 73° East 479 551 37,000  Level Denver Center
Tue 02:47:05 PM 38.1517 -107.4675 72° East 474 545 37,000  Level Denver Center
Tue 02:48:07 PM 38.1883 -107.3144 73° East 474 545 37,000  Level Denver Center
Tue 02:49:09 PM 38.2267 -107.1572 73° East 474 545 37,000  Level Denver Center
Tue 02:50:11 PM 38.2656 -106.9967 73° East 476 548 37,000  Level Denver Center
Tue 02:51:13 PM 38.3064 -106.8261 73° East 479 551 37,000  Level Denver Center
Tue 02:52:14 PM 38.3492 -106.6467 73° East 477 549 37,000  Level Denver Center
Tue 02:53:16 PM 38.3869 -106.4819 74° East 475 547 37,000  Level Denver Center
Tue 02:54:18 PM 38.4250 -106.3200 73° East 477 549 37,000  Level Denver Center
Tue 02:55:20 PM 38.4625 -106.1619 73° East 478 550 37,000  Level Denver Center
Tue 02:56:21 PM 38.5042 -105.9811 74° East 477 549 37,000  Level Denver Center
Tue 02:57:23 PM 38.5458 -105.8283 71° East 476 548 37,000  Level Denver Center
Tue 02:58:25 PM 38.5947 -105.6508 71° East 475 547 37,000  Level Denver Center
Tue 02:59:27 PM 38.6361 -105.4992 71° East 474 545 37,000  Level Denver Center
Tue 03:00:28 PM 38.6758 -105.3467 72° East 472 543 37,000  Level Denver Center
Tue 03:01:30 PM 38.7219 -105.1694 72° East 470 541 37,000  Level Denver Center
Tue 03:02:32 PM 38.7628 -105.0158 71° East 474 545 37,000  Level Denver Center
Tue 03:03:34 PM 38.8089 -104.8369 72° East 474 545 37,000  Level Denver Center
Tue 03:04:35 PM 38.8472 -104.6844 72° East 470 541 37,000  Level Denver Center
Tue 03:05:37 PM 38.8931 -104.5053 72° East 471 542 37,000  Level Denver Center
Tue 03:06:39 PM 38.9331 -104.3506 72° East 473 544 37,000  Level Denver Center
Tue 03:07:41 PM 38.9719 -104.1942 72° East 477 549 37,000  Level Denver Center
Tue 03:08:42 PM 39.0161 -104.0147 72° East 471 542 37,000  Level Denver Center
Tue 03:09:44 PM 39.0553 -103.8600 72° East 475 547 37,000  Level Denver Center
Tue 03:10:46 PM 39.1000 -103.6800 72° East 471 542 37,000  Level Denver Center
Tue 03:11:48 PM 39.1375 -103.5256 73° East 471 542 37,000  Level Denver Center
Tue 03:12:50 PM 39.1814 -103.3433 73° East 478 550 37,000  Level Denver Center
Tue 03:13:51 PM 39.2197 -103.1889 72° East 472 543 37,000  Level Denver Center
Tue 03:14:53 PM 39.2567 -103.0325 73° East 476 548 37,000  Level Denver Center
Tue 03:15:55 PM 39.3011 -102.8517 72° East 472 543 37,000  Level Denver Center
Tue 03:16:57 PM 39.3422 -102.6789 73° East 468 539 37,000  Level Denver Center
Tue 03:17:59 PM 39.3764 -102.5314 73° East 472 543 37,000  Level Denver Center
Tue 03:19:01 PM 39.4186 -102.3511 73° East 470 541 37,000  Level Denver Center
Tue 03:20:02 PM 39.4544 -102.1956 73° East 471 542 37,000  Level Denver Center
Tue 03:21:04 PM 39.4964 -102.0136 73° East 472 543 37,000  Level Denver Center
Tue 03:22:06 PM 39.5200 -101.8531 79° East 475 547 37,000  Level Denver Center
Tue 03:23:08 PM 39.5469 -101.6664 79° East 475 547 37,000  Level Denver Center
Tue 03:24:09 PM 39.5697 -101.5075 79° East 471 542 37,000  Level Denver Center
Tue 03:25:11 PM 39.5911 -101.3458 80° East 476 548 37,000  Level Denver Center
Tue 03:26:13 PM 39.6164 -101.1597 80° East 472 543 37,000  Level Denver Center
Tue 03:27:15 PM 39.6383 -100.9994 80° East 472 543 37,000  Level Denver Center
Tue 03:28:16 PM 39.6631 -100.8106 80° East 476 548 37,000  Level Denver Center
Tue 03:29:18 PM 39.6847 -100.6500 80° East 475 547 37,000  Level Denver Center
Tue 03:30:20 PM 39.7086 -100.4592 81° East 480 552 37,000  Level Denver Center
Tue 03:31:22 PM 39.7297 -100.2975 80° East 478 550 37,000  Level Denver Center
Tue 03:32:23 PM 39.7542 -100.1061 81° East 482 555 37,000  Level Denver Center
Tue 03:33:25 PM 39.7744 -99.9433 81° East 484 557 37,000  Level Denver Center
Tue 03:34:27 PM 39.7964 -99.7728 80° East 480 552 37,000  Level Denver Center
Tue 03:35:29 PM 39.8167 -99.5992 81° East 486 559 37,000  Level Denver Center
Tue 03:36:30 PM 39.8372 -99.4272 81° East 484 557 37,000  Level Denver Center
Tue 03:37:32 PM 39.8628 -99.2192 81° East 486 559 37,000  Level Denver Center
Tue 03:38:34 PM 39.8831 -99.0467 81° East 484 557 37,000  Level Denver Center
Tue 03:39:36 PM 39.9025 -98.8722 82° East 487 560 37,000  Level Denver Center
Tue 03:40:38 PM 39.9222 -98.6997 81° East 483 556 37,000  Level Denver Center
Tue 03:41:39 PM 39.9422 -98.5278 81° East 482 555 37,000  Level Denver Center
Tue 03:43:05 PM 39.9672 -98.2886 82° East 481 554 37,000 122 Level Minneapolis Center
Tue 03:44:07 PM 39.9903 -98.0822 82° East 481 554 37,300 726 Climbing Minneapolis Center
Tue 03:45:09 PM 40.0011 -97.9139 85° East 472 543 38,500 774 Climbing Minneapolis Center
Tue 03:46:11 PM 40.0006 -97.7439 90° East 471 542 38,900 242 Climbing Minneapolis Center
Tue 03:47:13 PM 40.0017 -97.5717 89° East 474 545 39,000 49 Climbing Minneapolis Center
Tue 03:48:14 PM 40.0025 -97.3994 90° East 476 548 39,000  Level Minneapolis Center
Tue 03:49:16 PM 40.0031 -97.2061 90° East 480 552 39,000  Level Minneapolis Center
Tue 03:50:18 PM 40.0033 -97.0342 90° East 478 550 39,000  Level Minneapolis Center
Tue 03:51:20 PM 40.0036 -96.8608 90° East 479 551 39,000  Level Minneapolis Center
Tue 03:52:22 PM 40.0033 -96.6872 90° East 480 552 39,000  Level Minneapolis Center
Tue 03:53:24 PM 40.0022 -96.5136 90° East 480 552 39,000  Level Minneapolis Center
Tue 03:54:19 PM 40.0022 -96.3211 90° East 482 555 39,000  Level Kansas City Center
Tue 03:55:21 PM 40.0008 -96.1486 91° East 482 555 39,000  Level Kansas City Center
Tue 03:56:23 PM 40.0006 -95.9822 90° East 480 552 39,000  Level Kansas City Center
Tue 03:57:25 PM 40.0111 -95.7889 86° East 478 550 39,000  Level Kansas City Center
Tue 03:58:28 PM 40.0194 -95.6236 86° East 477 549 39,000  Level Kansas City Center
Tue 03:59:30 PM 40.0294 -95.4297 86° East 477 549 39,000  Level Kansas City Center
Tue 04:00:32 PM 40.0375 -95.2658 86° East 473 544 39,000  Level Kansas City Center
Tue 04:01:34 PM 40.0453 -95.1031 86° East 470 541 39,000  Level Kansas City Center
Tue 04:02:36 PM 40.0550 -94.9122 86° East 469 540 39,000  Level Kansas City Center
Tue 04:03:38 PM 40.0617 -94.7497 87° East 469 540 39,000  Level Kansas City Center
Tue 04:04:40 PM 40.0703 -94.5589 87° East 471 542 39,000  Level Kansas City Center
Tue 04:05:42 PM 40.0769 -94.3933 87° East 474 545 39,000  Level Kansas City Center
Tue 04:06:44 PM 40.0842 -94.2022 87° East 473 544 39,000  Level Kansas City Center
Tue 04:07:46 PM 40.0897 -94.0286 88° East 474 545 39,000  Level Kansas City Center
Tue 04:08:48 PM 40.0947 -93.8581 88° East 476 548 39,000  Level Kansas City Center
Tue 04:09:50 PM 40.1275 -93.6933 75° East 472 543 39,000  Level Kansas City Center
Tue 04:10:52 PM 40.1611 -93.5267 75° East 475 547 39,000  Level Kansas City Center
Tue 04:11:54 PM 40.1994 -93.3261 76° East 477 549 39,000 -290 Level Kansas City Center
Tue 04:12:56 PM 40.2317 -93.1611 76° East 475 547 38,400 -532 Descending Kansas City Center
Tue 04:13:58 PM 40.2642 -92.9892 76° East 474 545 37,900 -532 Descending Kansas City Center
Tue 04:15:00 PM 40.2956 -92.8283 76° East 475 547 37,300 -581 Descending Kansas City Center
Tue 04:16:02 PM 40.3303 -92.6367 77° East 483 556 36,700 -581 Descending Kansas City Center
Tue 04:17:04 PM 40.3592 -92.4644 78° East 486 559 36,100 -581 Descending Kansas City Center
Tue 04:18:06 PM 40.3936 -92.3006 75° East 490 564 35,500 -629 Descending Kansas City Center
Tue 04:19:08 PM 40.4244 -92.1297 77° East 487 560 34,800 -650 Descending Kansas City Center
Tue 04:20:06 PM 40.4556 -91.9586 77° East 487 560 34,200 -700 Descending Chicago Center
Tue 04:21:08 PM 40.4928 -91.7506 77° East 492 566 33,400 -581 Descending Chicago Center
Tue 04:22:10 PM 40.5239 -91.5764 77° East 494 568 33,000 -194 Descending Chicago Center
Tue 04:23:12 PM 40.5556 -91.4028 76° East 493 567 33,000  Level Chicago Center
Tue 04:24:15 PM 40.6150 -91.2242 66° East 488 562 33,000  Level Chicago Center
Tue 04:25:17 PM 40.6708 -91.0611 66° East 487 560 33,000  Level Chicago Center
Tue 04:26:19 PM 40.7272 -90.8986 65° Northeast 487 560 33,000  Level Chicago Center
Tue 04:27:21 PM 40.7817 -90.7350 66° East 485 558 33,000  Level Chicago Center
Tue 04:28:23 PM 40.8369 -90.5706 66° East 488 562 33,000  Level Chicago Center
Tue 04:29:25 PM 40.8919 -90.4069 66° East 486 559 33,000 -242 Level Chicago Center
Tue 04:30:27 PM 40.9522 -90.2250 66° East 491 565 32,500 -1,500 Descending Chicago Center
Tue 04:31:29 PM 41.0144 -90.0367 66° East 498 573 29,900 -2,448 Descending Chicago Center
Tue 04:32:32 PM 41.0714 -89.8608 67° East 512 589 27,400 -2,419 Descending Chicago Center
Tue 04:33:33 PM 41.1281 -89.6878 66° East 510 587 24,900 -2,419 Descending Chicago Center
Tue 04:34:36 PM 41.1847 -89.5250 65° Northeast 489 563 22,400 -2,400 Descending Chicago Center
Tue 04:35:38 PM 41.2469 -89.3733 61° Northeast 471 542 19,900 -2,226 Descending Chicago Center
Tue 04:36:40 PM 41.3058 -89.2261 62° Northeast 457 526 17,800 -1,887 Descending Chicago Center
Tue 04:37:42 PM 41.3611 -89.0833 63° Northeast 437 503 16,000 -1,887 Descending Chicago Center
Tue 04:38:44 PM 41.4275 -88.9192 62° Northeast 425 489 13,900 -1,839 Descending Chicago Center
Tue 04:39:46 PM 41.4803 -88.7897 61° Northeast 406 467 12,200 -1,597 Descending Chicago Center
Tue 04:40:48 PM 41.5294 -88.6636 62° Northeast 389 448 10,600 -1,113 Descending Chicago Center
Tue 04:41:50 PM 41.5750 -88.5489 62° Northeast 358 412 9,900 -290 Descending Chicago Center
Tue 04:42:52 PM 41.6225 -88.4411 59° Northeast 340 391 10,000 48 Climbing Chicago Center
Tue 04:43:54 PM 41.6925 -88.3222 52° Northeast 335 386 10,000  Level Chicago Center
Tue 04:44:56 PM 41.7508 -88.2236 52° Northeast 338 389 10,000 -48 Level Chicago Center
Tue 04:45:59 PM 41.8089 -88.1242 52° Northeast 338 389 9,900 -384 Descending Chicago Center
Tue 04:47:01 PM 41.8611 -88.0306 53° Northeast 314 361 9,200 -1,016 Descending Chicago Center
Tue 04:48:03 PM 41.8847 -87.9278 73° East 305 351 7,800 -1,113 Descending Chicago Center
Tue 04:49:05 PM 41.8850 -87.8203 90° East 290 334 6,900 -871 Descending Chicago Center
Tue 04:50:07 PM 41.8836 -87.6906 91° East 291 335 6,000 -968 Descending Chicago Center
Tue 04:51:09 PM 41.8853 -87.5839 89° East 289 333 4,900 -484 Descending Chicago Center
Tue 04:52:11 PM 41.8842 -87.4803 91° East 283 326 5,000 48 Climbing Chicago Center
Tue 04:53:13 PM 41.8975 -87.3897 79° East 267 307 5,000 -48 Level Chicago Center
Tue 04:54:15 PM 41.9578 -87.3967 355° North 240 276 4,900  Descending Chicago Center
Tue 04:55:17 PM 41.9697 -87.4725 282° West 218 251 5,000 48 Climbing Chicago Center
Tue 04:56:19 PM 41.9694 -87.5658 270° West 212 244 5,000  Level Chicago Center

Login

Don't have an account? Register now (free) for customized features, flight alerts, and more!